Mobridge, SD

3:46 PM CST on March 06, 2015 (GMT -0600)
NCSD Skywarn | Change Station
CLOSE
Current Station
Personal Weather Station
Location: Mobridge, SD
Elevation: 1677 ft
Nearby Weather Stations

Elev 1677 ft 45.54 °N, 100.44 °W | Updated 1 second ago

Mostly Cloudy
Mostly Cloudy
49.7 °F
Feels Like 50 °F
N
0.7
Wind Variable Wind from NNW
Gusts 4.5 mph

Today
High -- | Low -- °F
--% Chance of Precip.
Yesterday
High -- | Low -- °F
Precip. -- in
7:11 AM 6:35 PM
Full, 99% visible
Pressure 30.08 in
Visibility 10.0 miles
Clouds Few 8000 ft
Scattered Clouds 9500 ft
Mostly Cloudy 12000 ft
Windchill 50 °F
Dew Point 16 °F
Humidity 26%
Rainfall in
Snow Depth Not available.
UV 0.0 out of 12
Pollen 1.70 out of 12
Air Quality Not available.
Flu Activity Not available.
METAR KMBG 062052Z AUTO 16003KT 10SM FEW080 SCT095 BKN120 08/M07 A3002 RMK AO2 SLP184 T00781067 58026

More Conditions Fewer Conditions

Pressure 30.08 in
Visibility 10.0 miles
Clouds Few 8000 ft
Scattered Clouds 9500 ft
Mostly Cloudy 12000 ft
Windchill 50 °F
Dew Point 16 °F
Humidity 26%
Rainfall in
Snow Depth Not available.
UV 0.0 out of 12
Pollen 1.70 out of 12
Air Quality Not available.
Flu Activity Not available.
METAR KMBG 062052Z AUTO 16003KT 10SM FEW080 SCT095 BKN120 08/M07 A3002 RMK AO2 SLP184 T00781067 58026

More Conditions Fewer Conditions

10-Day Weather Forecast

Almanac

Astronomy

Mar. 06, 2015 Rise Set
Actual Time
Civil Twilight
Nautical Twilight
Astronomical Twilight
Moon
Length of Visible Light
Length of Day
Tomorrow will be .
, % of the Moon is Illuminated

Today's Extremes

State Highs State Lows

Community

WunderPhotos

Upload Photos

1,803,406 photos uploaded!

WunderBlogs® & News

Nearby

Air Quality

  Air Quality AQ Index Pollutant
Not available.

Snow Depth

Station Depth Elevation

Earthquake Activity

City Distance Mag. Time & Date
Minimum magnitude displayed is 2.5.

Coastal Water Temperatures

Place Temperature

Nearby Weather Stations